createdAt,value
2023-05-25T00:01:02.974Z,9.66
2023-05-25T00:03:31.361Z,8.09
2023-05-25T00:06:01.537Z,8.51
2023-05-25T00:08:29.706Z,8.03
2023-05-25T00:10:56.578Z,9.08
2023-05-25T00:13:23.342Z,8.52
2023-05-25T00:15:50.657Z,8.69
2023-05-25T00:18:18.494Z,7.76
2023-05-25T00:20:45.995Z,8.00
2023-05-25T00:23:12.784Z,8.70
2023-05-25T00:25:39.523Z,8.95
2023-05-25T00:28:06.468Z,9.39
2023-05-25T00:30:33.225Z,8.18
2023-05-25T00:33:01.619Z,7.95
2023-05-25T00:35:28.899Z,9.45
2023-05-25T00:37:55.991Z,9.29
2023-05-25T00:40:22.833Z,7.73
2023-05-25T00:42:52.494Z,9.78
2023-05-25T00:45:19.198Z,9.28
2023-05-25T00:47:51.244Z,8.69
2023-05-25T00:50:30.489Z,8.54
2023-05-25T00:52:57.326Z,7.86
2023-05-25T00:55:25.976Z,7.93
2023-05-25T00:57:55.442Z,6.99
2023-05-25T01:00:23.812Z,7.85
2023-05-25T01:02:53.137Z,6.93
2023-05-25T01:05:21.769Z,8.32
2023-05-25T01:07:50.581Z,6.58
2023-05-25T01:10:20.779Z,7.34
2023-05-25T01:12:53.242Z,7.23
2023-05-25T01:15:20.956Z,8.02
2023-05-25T01:17:54.126Z,8.02
2023-05-25T01:20:21.134Z,8.56
2023-05-25T01:22:54.283Z,7.81
2023-05-25T01:25:31.568Z,7.97
2023-05-25T01:28:09.526Z,8.00
2023-05-25T01:30:38.752Z,8.70
2023-05-25T01:33:07.385Z,8.42
2023-05-25T01:35:35.739Z,8.36
2023-05-25T01:38:03.096Z,9.09
2023-05-25T01:40:29.963Z,8.24
2023-05-25T01:42:56.862Z,7.24
2023-05-25T01:45:24.073Z,6.70
2023-05-25T01:48:15.418Z,7.84
2023-05-25T01:50:54.686Z,9.11
2023-05-25T01:53:35.983Z,9.36
2023-05-25T01:56:08.809Z,8.28
2023-05-25T01:58:42.076Z,8.43
2023-05-25T02:01:10.449Z,8.21
2023-05-25T02:03:38.257Z,8.11
2023-05-25T02:06:05.610Z,6.75
2023-05-25T02:08:34.919Z,8.32
2023-05-25T02:11:01.911Z,9.16
2023-05-25T02:13:28.682Z,7.98
2023-05-25T02:15:55.704Z,8.25
2023-05-25T02:18:22.624Z,9.27
2023-05-25T02:20:49.594Z,8.56
2023-05-25T02:23:18.670Z,9.04
2023-05-25T02:25:45.814Z,7.87
2023-05-25T02:28:12.930Z,7.90
2023-05-25T02:30:39.707Z,7.59
2023-05-25T02:33:06.547Z,6.27
2023-05-25T02:35:34.775Z,5.01
2023-05-25T02:38:01.910Z,6.08
2023-05-25T02:40:28.758Z,7.11
2023-05-25T02:42:55.734Z,6.50
2023-05-25T02:45:22.740Z,7.15
2023-05-25T02:47:50.084Z,6.28
2023-05-25T02:50:17.578Z,7.22
2023-05-25T02:52:47.508Z,7.06
2023-05-25T02:55:14.654Z,7.30
2023-05-25T02:57:42.460Z,5.56
2023-05-25T03:00:12.462Z,7.65
2023-05-25T03:02:39.656Z,6.66
2023-05-25T03:05:07.578Z,7.31
2023-05-25T03:07:35.713Z,5.93
2023-05-25T03:10:02.589Z,5.64
2023-05-25T03:12:29.678Z,7.37
2023-05-25T03:14:56.584Z,6.83
2023-05-25T03:17:23.582Z,6.49
2023-05-25T03:19:50.446Z,7.15
2023-05-25T03:22:17.205Z,5.22
2023-05-25T03:24:46.663Z,7.19
2023-05-25T03:27:13.946Z,6.82
2023-05-25T03:29:40.743Z,6.59
2023-05-25T03:32:08.798Z,7.27
2023-05-25T03:34:37.398Z,7.02
2023-05-25T03:37:05.442Z,6.26
2023-05-25T03:39:32.239Z,7.37
2023-05-25T03:41:59.067Z,6.94
2023-05-25T03:44:25.908Z,7.31
2023-05-25T03:46:53.471Z,6.74
2023-05-25T03:49:20.377Z,6.88
2023-05-25T03:51:47.139Z,7.33
2023-05-25T03:54:14.087Z,4.87
2023-05-25T03:56:41.006Z,6.79
2023-05-25T03:59:07.886Z,8.16
2023-05-25T04:01:38.180Z,6.63
2023-05-25T04:04:06.787Z,6.39
2023-05-25T04:06:37.230Z,6.30
2023-05-25T04:09:04.887Z,5.50
2023-05-25T04:11:33.276Z,6.28
2023-05-25T04:14:00.064Z,6.99
2023-05-25T04:16:30.020Z,7.09
2023-05-25T04:18:57.480Z,8.10
2023-05-25T04:21:24.736Z,7.98
2023-05-25T04:23:51.563Z,4.99
2023-05-25T04:26:19.543Z,5.85
2023-05-25T04:28:48.683Z,7.63
2023-05-25T04:31:34.062Z,8.11
2023-05-25T04:34:21.587Z,6.67
2023-05-25T04:37:05.614Z,8.07
2023-05-25T04:39:33.115Z,7.07
2023-05-25T04:42:04.698Z,8.38
2023-05-25T04:44:33.384Z,7.33
2023-05-25T04:47:01.478Z,8.32
2023-05-25T04:49:34.024Z,6.61
2023-05-25T04:52:01.080Z,8.28
2023-05-25T04:54:29.929Z,6.88
2023-05-25T04:56:59.452Z,6.27
2023-05-25T04:59:26.314Z,6.92
2023-05-25T05:01:53.175Z,8.10
2023-05-25T05:04:20.452Z,8.34
2023-05-25T05:06:47.755Z,6.92
2023-05-25T05:09:23.000Z,7.16
2023-05-25T05:11:49.845Z,6.19
2023-05-25T05:14:18.150Z,7.89
2023-05-25T05:16:48.061Z,7.67
2023-05-25T05:19:15.153Z,7.97
2023-05-25T05:21:42.255Z,8.74
2023-05-25T05:24:09.318Z,8.10
2023-05-25T05:26:48.171Z,8.60
2023-05-25T05:29:27.892Z,7.96
2023-05-25T05:31:55.632Z,8.18
2023-05-25T05:34:22.476Z,9.15
2023-05-25T05:36:57.506Z,7.72
2023-05-25T05:39:27.460Z,9.00
2023-05-25T05:41:55.157Z,9.50
2023-05-25T05:44:23.467Z,8.36
2023-05-25T05:46:52.285Z,9.26
2023-05-25T05:49:19.160Z,9.60
2023-05-25T05:51:46.048Z,8.29
2023-05-25T05:54:13.875Z,8.20
2023-05-25T05:56:40.889Z,8.72
2023-05-25T05:59:07.716Z,6.74
2023-05-25T06:01:34.647Z,8.72
2023-05-25T06:04:02.121Z,8.35
2023-05-25T06:06:28.903Z,8.47
2023-05-25T06:08:57.629Z,7.99
2023-05-25T06:11:24.419Z,9.04
2023-05-25T06:13:51.211Z,8.58
2023-05-25T06:16:18.060Z,9.39
2023-05-25T06:18:45.191Z,8.83
2023-05-25T06:21:13.028Z,9.28
2023-05-25T06:23:39.965Z,8.12
2023-05-25T06:26:07.127Z,7.90
2023-05-25T06:28:34.592Z,8.98
2023-05-25T06:31:01.444Z,9.69
2023-05-25T06:33:28.288Z,8.77
2023-05-25T06:35:58.677Z,9.75
2023-05-25T06:38:25.517Z,7.88
2023-05-25T06:40:53.054Z,10.01
2023-05-25T06:43:20.529Z,10.32
2023-05-25T06:45:54.578Z,9.47
2023-05-25T06:48:21.411Z,9.88
2023-05-25T06:50:48.240Z,10.10
2023-05-25T06:53:15.335Z,8.27
2023-05-25T06:55:42.572Z,8.78
2023-05-25T06:58:09.446Z,9.53
2023-05-25T07:00:36.234Z,9.47
2023-05-25T07:03:03.119Z,9.83
2023-05-25T07:05:29.927Z,8.79
2023-05-25T07:07:56.716Z,9.84
2023-05-25T07:10:23.966Z,9.10
2023-05-25T07:12:50.834Z,9.41
2023-05-25T07:15:17.775Z,10.04
2023-05-25T07:17:45.210Z,9.87
2023-05-25T07:20:13.265Z,8.46
2023-05-25T07:22:40.226Z,9.48
2023-05-25T07:25:07.471Z,10.02
2023-05-25T07:27:34.380Z,9.38
2023-05-25T07:30:01.137Z,9.22
2023-05-25T07:32:28.048Z,9.61
2023-05-25T07:34:54.914Z,9.35
2023-05-25T07:37:21.675Z,8.85
2023-05-25T07:39:48.566Z,9.79
2023-05-25T07:42:20.861Z,10.51
2023-05-25T07:44:49.129Z,9.36
2023-05-25T07:47:16.005Z,9.51
2023-05-25T07:49:42.923Z,9.36
2023-05-25T07:52:10.434Z,9.61
2023-05-25T07:54:40.329Z,9.28
2023-05-25T07:57:08.024Z,9.83
2023-05-25T07:59:35.320Z,10.58
2023-05-25T08:02:02.767Z,9.88
2023-05-25T08:04:31.373Z,12.00
2023-05-25T08:06:58.376Z,10.42
2023-05-25T08:09:25.122Z,9.37
2023-05-25T08:11:52.352Z,9.86
2023-05-25T08:14:21.265Z,10.42
2023-05-25T08:16:48.203Z,11.48
2023-05-25T08:19:15.073Z,9.90
2023-05-25T08:21:41.962Z,10.26
2023-05-25T08:24:08.776Z,9.00
2023-05-25T08:26:52.830Z,10.11
2023-05-25T08:29:21.406Z,10.40
2023-05-25T08:31:49.848Z,10.56
2023-05-25T08:34:17.144Z,8.67
2023-05-25T08:36:44.877Z,10.25
2023-05-25T08:39:11.880Z,9.76
2023-05-25T08:41:43.092Z,9.96
2023-05-25T08:44:10.807Z,11.61
2023-05-25T08:46:37.907Z,11.92
2023-05-25T08:49:13.200Z,11.90
2023-05-25T08:51:49.824Z,9.84
2023-05-25T08:54:19.661Z,11.16
2023-05-25T08:56:50.866Z,9.23
2023-05-25T08:59:23.474Z,10.85
2023-05-25T09:01:56.460Z,10.27
2023-05-25T09:04:24.185Z,11.56
2023-05-25T09:07:05.675Z,10.12
2023-05-25T09:09:38.041Z,10.75
2023-05-25T09:12:06.329Z,10.24
2023-05-25T09:14:34.858Z,11.42
2023-05-25T09:17:01.992Z,11.29
2023-05-25T09:19:28.757Z,11.73
2023-05-25T09:22:03.190Z,11.21
2023-05-25T09:24:41.528Z,11.10
2023-05-25T09:27:11.845Z,9.05
2023-05-25T09:29:38.901Z,9.90
2023-05-25T09:32:06.796Z,12.07
2023-05-25T09:34:34.976Z,11.26
2023-05-25T09:37:04.738Z,12.43
2023-05-25T09:39:31.845Z,15.18
2023-05-25T09:41:58.787Z,13.99
2023-05-25T09:44:27.200Z,12.60
2023-05-25T09:46:54.110Z,12.73
2023-05-25T09:49:21.332Z,12.89
2023-05-25T09:51:48.434Z,14.18
2023-05-25T09:54:15.637Z,16.10
2023-05-25T09:56:42.656Z,15.48
2023-05-25T09:59:09.618Z,15.12
2023-05-25T10:01:36.960Z,14.66
2023-05-25T10:04:05.455Z,13.01
2023-05-25T10:06:33.888Z,14.10
2023-05-25T10:09:01.692Z,14.06
2023-05-25T10:11:29.490Z,13.30
2023-05-25T10:13:56.827Z,14.43
2023-05-25T10:16:29.692Z,14.82
2023-05-25T10:19:26.047Z,14.84
2023-05-25T10:22:01.534Z,16.64
2023-05-25T10:24:35.150Z,14.12
2023-05-25T10:27:14.719Z,14.90
2023-05-25T10:29:52.582Z,15.63
2023-05-25T10:32:19.573Z,15.69
2023-05-25T10:34:48.819Z,14.89
2023-05-25T10:37:18.587Z,14.25
2023-05-25T10:39:46.348Z,15.37
2023-05-25T10:42:13.370Z,14.78
2023-05-25T10:44:42.150Z,15.39
2023-05-25T10:47:09.710Z,15.55
2023-05-25T10:49:53.252Z,15.75
2023-05-25T10:52:20.871Z,16.20
2023-05-25T10:54:48.929Z,13.51
2023-05-25T10:57:20.999Z,13.41
2023-05-25T10:59:52.310Z,14.29
2023-05-25T11:02:25.213Z,15.40
2023-05-25T11:05:27.409Z,14.71
2023-05-25T11:07:57.885Z,15.41
2023-05-25T11:10:46.376Z,16.71
2023-05-25T11:13:23.692Z,14.34
2023-05-25T11:16:40.182Z,12.77
2023-05-25T11:19:15.060Z,14.05
2023-05-25T11:21:44.021Z,14.95
2023-05-25T11:24:14.174Z,15.15
2023-05-25T11:26:58.747Z,15.22
2023-05-25T11:29:27.358Z,16.25
2023-05-25T11:31:56.197Z,15.06
2023-05-25T11:34:28.150Z,14.71
2023-05-25T11:37:02.294Z,12.89
2023-05-25T11:39:30.288Z,14.41
2023-05-25T11:42:04.344Z,12.78
2023-05-25T11:44:34.209Z,14.11
2023-05-25T11:47:14.928Z,16.56
2023-05-25T11:49:44.252Z,15.50
2023-05-25T11:52:11.182Z,14.99
2023-05-25T11:54:41.089Z,15.17
2023-05-25T11:57:25.384Z,15.07
2023-05-25T11:59:54.367Z,14.71
2023-05-25T12:02:22.128Z,14.55
2023-05-25T12:04:59.433Z,14.62
2023-05-25T12:07:26.869Z,13.25
2023-05-25T12:10:08.444Z,15.11
2023-05-25T12:12:50.965Z,13.48
2023-05-25T12:15:27.176Z,13.19
2023-05-25T12:17:54.583Z,13.30
2023-05-25T12:20:22.530Z,15.39
2023-05-25T12:22:49.800Z,14.80
2023-05-25T12:25:20.241Z,16.16
2023-05-25T12:27:47.080Z,12.51
2023-05-25T12:30:14.062Z,15.17
2023-05-25T12:33:03.816Z,15.23
2023-05-25T12:35:45.234Z,16.18
2023-05-25T12:38:18.285Z,15.68
2023-05-25T12:40:45.635Z,14.47
2023-05-25T12:43:14.223Z,14.61
2023-05-25T12:45:42.602Z,15.65
2023-05-25T12:48:09.801Z,15.60
2023-05-25T12:50:41.406Z,13.60
2023-05-25T12:53:08.320Z,15.52
2023-05-25T12:55:36.292Z,15.03
2023-05-25T12:58:05.696Z,14.90
2023-05-25T13:00:35.502Z,14.55
2023-05-25T13:03:02.950Z,15.10
2023-05-25T13:05:32.982Z,14.81
2023-05-25T13:07:59.956Z,15.77
2023-05-25T13:10:28.818Z,14.03
2023-05-25T13:12:58.332Z,14.41
2023-05-25T13:15:26.372Z,13.91
2023-05-25T13:17:54.301Z,16.66
2023-05-25T13:20:24.945Z,15.63
2023-05-25T13:22:53.185Z,15.70
2023-05-25T13:25:22.325Z,19.20
2023-05-25T13:27:51.112Z,19.97
2023-05-25T13:30:18.325Z,18.68
2023-05-25T13:32:45.745Z,18.88
2023-05-25T13:35:19.359Z,17.67
2023-05-25T13:37:46.502Z,17.82
2023-05-25T13:40:13.740Z,16.34
2023-05-25T13:42:40.896Z,15.12
2023-05-25T13:45:08.404Z,17.90
2023-05-25T13:47:35.381Z,17.32
2023-05-25T13:50:02.305Z,17.52
2023-05-25T13:52:29.112Z,15.45
2023-05-25T13:54:55.991Z,16.48
2023-05-25T13:57:22.792Z,17.49
2023-05-25T13:59:49.565Z,16.28
2023-05-25T14:02:16.594Z,15.79
2023-05-25T14:04:43.501Z,15.61
2023-05-25T14:07:11.034Z,17.22
2023-05-25T14:09:37.967Z,14.40
2023-05-25T14:12:05.162Z,16.73
2023-05-25T14:14:33.038Z,18.70
2023-05-25T14:17:01.346Z,20.47
2023-05-25T14:19:29.377Z,19.77
2023-05-25T14:22:11.725Z,20.02
2023-05-25T14:24:40.696Z,19.57
2023-05-25T14:27:07.532Z,16.89
2023-05-25T14:29:34.648Z,18.95
2023-05-25T14:32:01.968Z,20.65
2023-05-25T14:34:29.557Z,21.66
2023-05-25T14:36:56.784Z,18.86
2023-05-25T14:39:23.661Z,17.05
2023-05-25T14:41:50.680Z,16.99
2023-05-25T14:44:17.607Z,20.08
2023-05-25T14:46:44.429Z,17.76
2023-05-25T14:49:11.211Z,17.03
2023-05-25T14:51:38.339Z,16.89
2023-05-25T14:54:06.448Z,16.87
2023-05-25T14:56:33.679Z,18.48
2023-05-25T14:59:00.440Z,17.48
2023-05-25T15:01:32.496Z,16.30
2023-05-25T15:03:59.386Z,19.05
2023-05-25T15:06:26.328Z,18.88
2023-05-25T15:08:53.383Z,16.89
2023-05-25T15:11:20.269Z,19.96
2023-05-25T15:13:47.059Z,19.03
2023-05-25T15:16:14.660Z,18.00
2023-05-25T15:18:41.671Z,19.02
2023-05-25T15:21:08.902Z,18.87
2023-05-25T15:23:36.762Z,17.70
2023-05-25T15:26:07.852Z,16.50
2023-05-25T15:28:35.078Z,18.63
2023-05-25T15:31:03.349Z,18.33
2023-05-25T15:33:44.152Z,18.43
2023-05-25T15:36:16.754Z,18.52
2023-05-25T15:38:44.502Z,20.07
2023-05-25T15:41:15.087Z,17.19
2023-05-25T15:43:42.278Z,19.09
2023-05-25T15:46:09.072Z,20.82
2023-05-25T15:48:36.022Z,18.16
2023-05-25T15:51:02.830Z,17.47
2023-05-25T15:53:30.447Z,18.59
2023-05-25T15:55:57.437Z,19.44
2023-05-25T15:58:24.243Z,17.57
2023-05-25T16:00:51.059Z,18.36
2023-05-25T16:03:17.936Z,19.57
2023-05-25T16:05:45.016Z,18.74
2023-05-25T16:08:14.059Z,18.98
2023-05-25T16:10:40.914Z,17.34
2023-05-25T16:13:07.729Z,18.25
2023-05-25T16:15:34.503Z,18.36
2023-05-25T16:18:01.407Z,17.63
2023-05-25T16:20:28.272Z,16.28
2023-05-25T16:22:55.069Z,17.35
2023-05-25T16:25:21.969Z,18.36
2023-05-25T16:27:48.769Z,18.20
2023-05-25T16:30:15.584Z,16.82
2023-05-25T16:32:42.456Z,16.36
2023-05-25T16:35:09.443Z,18.24
2023-05-25T16:37:36.225Z,17.72
2023-05-25T16:40:03.119Z,17.87
2023-05-25T16:42:29.951Z,18.57
2023-05-25T16:44:56.686Z,17.93
2023-05-25T16:47:23.436Z,18.28
2023-05-25T16:49:50.281Z,18.39
2023-05-25T16:52:17.096Z,17.66
2023-05-25T16:54:43.854Z,16.58
2023-05-25T16:57:11.412Z,17.83
2023-05-25T16:59:39.358Z,18.25
2023-05-25T17:02:06.803Z,17.22
2023-05-25T17:04:33.612Z,17.47
2023-05-25T17:07:00.459Z,16.68
2023-05-25T17:09:27.564Z,17.26
2023-05-25T17:11:59.411Z,16.55
2023-05-25T17:14:26.240Z,16.47
2023-05-25T17:16:53.511Z,17.19
2023-05-25T17:19:20.307Z,16.44
2023-05-25T17:21:47.648Z,16.88
2023-05-25T17:24:14.490Z,16.77
2023-05-25T17:26:41.525Z,15.90
2023-05-25T17:29:08.361Z,15.43
2023-05-25T17:31:35.652Z,15.21
2023-05-25T17:34:05.904Z,15.04
2023-05-25T17:36:32.726Z,15.96
2023-05-25T17:38:59.586Z,15.46
2023-05-25T17:41:26.512Z,15.50
2023-05-25T17:43:53.414Z,15.26
2023-05-25T17:46:45.660Z,14.99
2023-05-25T17:49:15.345Z,14.84
2023-05-25T17:51:42.277Z,14.02
2023-05-25T17:55:00.537Z,15.01
2023-05-25T17:57:27.458Z,15.15
2023-05-25T17:59:56.375Z,14.23
2023-05-25T18:02:23.460Z,15.03
2023-05-25T18:04:50.637Z,13.96
2023-05-25T18:07:18.023Z,14.11
2023-05-25T18:09:44.855Z,13.73
2023-05-25T18:12:11.795Z,13.50
2023-05-25T18:14:38.735Z,13.75
2023-05-25T18:17:05.695Z,13.73
2023-05-25T18:19:32.593Z,14.01
2023-05-25T18:21:59.456Z,13.32
2023-05-25T18:24:26.388Z,13.53
2023-05-25T18:26:53.189Z,13.54
2023-05-25T18:29:20.014Z,13.43
2023-05-25T18:31:48.917Z,13.89
2023-05-25T18:34:16.133Z,14.48
2023-05-25T18:36:42.996Z,13.32
2023-05-25T18:39:09.895Z,12.99
2023-05-25T18:41:36.829Z,12.54
2023-05-25T18:44:03.709Z,13.28
2023-05-25T18:46:30.694Z,13.28
2023-05-25T18:48:57.425Z,12.91
2023-05-25T18:51:25.983Z,13.31
2023-05-25T18:53:53.408Z,13.43
2023-05-25T18:56:20.182Z,14.09
2023-05-25T18:58:48.262Z,12.96
2023-05-25T19:01:15.722Z,12.66
2023-05-25T19:03:42.621Z,13.66
2023-05-25T19:06:09.616Z,13.12
2023-05-25T19:08:36.420Z,13.08
2023-05-25T19:11:03.303Z,13.25
2023-05-25T19:13:30.101Z,13.20
2023-05-25T19:15:56.958Z,12.24
2023-05-25T19:18:23.779Z,12.41
2023-05-25T19:20:50.663Z,11.51
2023-05-25T19:23:19.503Z,11.94
2023-05-25T19:25:46.672Z,11.84
2023-05-25T19:28:14.346Z,13.07
2023-05-25T19:30:41.331Z,12.69
2023-05-25T19:33:08.369Z,12.81
2023-05-25T19:35:35.701Z,12.85
2023-05-25T19:38:02.591Z,12.46
2023-05-25T19:40:29.493Z,11.41
2023-05-25T19:42:56.370Z,11.61
2023-05-25T19:45:23.294Z,12.54
2023-05-25T19:47:50.633Z,12.82
2023-05-25T19:50:17.648Z,12.94
2023-05-25T19:52:44.639Z,12.89
2023-05-25T19:55:11.687Z,11.75
2023-05-25T19:57:38.604Z,11.87
2023-05-25T20:00:14.193Z,12.71
2023-05-25T20:02:48.330Z,12.85
2023-05-25T20:05:15.197Z,13.00
2023-05-25T20:07:42.160Z,12.58
2023-05-25T20:10:09.316Z,12.83
2023-05-25T20:12:36.235Z,12.00
2023-05-25T20:15:03.701Z,11.65
2023-05-25T20:17:30.765Z,11.91
2023-05-25T20:19:59.626Z,12.26
2023-05-25T20:22:28.165Z,12.52
2023-05-25T20:24:58.376Z,12.63
2023-05-25T20:27:25.923Z,12.58
2023-05-25T20:29:54.083Z,12.41
2023-05-25T20:32:21.210Z,12.43
2023-05-25T20:34:50.519Z,11.75
2023-05-25T20:37:17.442Z,12.82
2023-05-25T20:39:44.670Z,12.44
2023-05-25T20:42:11.850Z,11.76
2023-05-25T20:44:38.942Z,11.34
2023-05-25T20:47:08.759Z,11.94
2023-05-25T20:49:35.774Z,12.18
2023-05-25T20:52:02.857Z,11.88
2023-05-25T20:54:30.153Z,11.57
2023-05-25T20:56:57.254Z,12.45
2023-05-25T20:59:24.241Z,12.09
2023-05-25T21:01:51.315Z,12.46
2023-05-25T21:04:18.493Z,11.93
2023-05-25T21:06:45.725Z,11.80
2023-05-25T21:09:12.807Z,10.93
2023-05-25T21:11:39.756Z,10.73
2023-05-25T21:14:07.396Z,10.78
2023-05-25T21:16:34.885Z,11.75
2023-05-25T21:19:04.158Z,12.19
2023-05-25T21:21:33.981Z,12.00
2023-05-25T21:24:04.393Z,11.12
2023-05-25T21:26:31.624Z,11.02
2023-05-25T21:29:01.931Z,10.95
2023-05-25T21:31:29.030Z,12.28
2023-05-25T21:33:56.153Z,12.20
2023-05-25T21:36:23.259Z,11.57
2023-05-25T21:38:50.600Z,11.71
2023-05-25T21:41:17.799Z,11.68
2023-05-25T21:43:44.784Z,11.87
2023-05-25T21:46:11.638Z,11.70
2023-05-25T21:48:38.434Z,10.83
2023-05-25T21:51:05.560Z,10.64
2023-05-25T21:53:32.457Z,10.29
2023-05-25T21:55:59.344Z,11.29
2023-05-25T21:58:26.279Z,10.96
2023-05-25T22:00:53.167Z,10.75
2023-05-25T22:03:20.116Z,10.34
2023-05-25T22:05:47.041Z,11.59
2023-05-25T22:08:13.914Z,11.46
2023-05-25T22:10:41.200Z,10.27
2023-05-25T22:13:08.082Z,10.27
2023-05-25T22:15:35.328Z,10.08
2023-05-25T22:18:02.365Z,10.37
2023-05-25T22:20:29.307Z,10.83
2023-05-25T22:22:56.154Z,11.53
2023-05-25T22:25:23.202Z,10.15
2023-05-25T22:27:49.993Z,10.84
2023-05-25T22:30:16.843Z,10.20
2023-05-25T22:32:43.671Z,10.66
2023-05-25T22:35:10.615Z,11.21
2023-05-25T22:37:37.474Z,10.43
2023-05-25T22:40:05.916Z,9.90
2023-05-25T22:42:32.862Z,10.16
2023-05-25T22:44:59.614Z,9.95
2023-05-25T22:47:26.487Z,10.53
2023-05-25T22:49:53.332Z,9.89
2023-05-25T22:52:20.164Z,9.63
2023-05-25T22:54:47.004Z,9.95
2023-05-25T22:57:13.814Z,10.86
2023-05-25T22:59:40.709Z,10.79
2023-05-25T23:02:08.077Z,11.04
2023-05-25T23:04:38.274Z,10.79
2023-05-25T23:07:05.354Z,10.62
2023-05-25T23:09:32.121Z,10.64
2023-05-25T23:11:58.846Z,8.29
2023-05-25T23:14:26.219Z,9.93
2023-05-25T23:16:53.027Z,9.81
2023-05-25T23:19:20.000Z,10.34
2023-05-25T23:21:48.327Z,9.42
2023-05-25T23:24:15.604Z,8.27
2023-05-25T23:26:42.447Z,7.77
2023-05-25T23:29:09.344Z,8.18
2023-05-25T23:31:36.655Z,7.77
2023-05-25T23:34:03.513Z,6.36
2023-05-25T23:36:30.332Z,7.72
2023-05-25T23:38:57.115Z,6.76
2023-05-25T23:41:25.398Z,6.21
2023-05-25T23:43:52.273Z,7.55
2023-05-25T23:46:19.346Z,7.50
2023-05-25T23:48:46.302Z,6.67
2023-05-25T23:51:13.325Z,7.66
2023-05-25T23:53:40.075Z,7.54
2023-05-25T23:56:07.137Z,7.59
2023-05-25T23:58:34.326Z,7.55
